Private Wetterstation Wechselburg
Wetterdaten: Woche 04.09.23 - 10.09.23 (KW36)
Datum Zeit Temp. +2m Bodentemp. Temp.+5cm Temp. Wind Windchill X Diff Temp. Feuchte +2m Feuchte +5cm Luftdruck Regen Wind Richtung Sonnenschein Taupunkt Windchill Windben
04.09.2023 00:00 12,0 C 17,6 C 11,4 C 26,8 C 26,8 C 14,8 C 84 % 88 % 1025,2 hPa 0,0 l/m 0,0 km/h (0 Bft) - - 0,00 h 9,5 C 26,8 C 0,0 km/h (0 Bft)
04.09.2023 01:00 11,3 C 17,6 C 10,8 C 26,8 C 26,8 C 15,5 C 86 % 90 % 1025,4 hPa 0,0 l/m 0,0 km/h (0 Bft) - - 0,00 h 9,0 C 26,8 C 0,0 km/h (0 Bft)
04.09.2023 02:00 10,7 C 17,4 C 10,2 C 26,8 C 26,8 C 16,1 C 86 % 90 % 1025,9 hPa 0,0 l/m 0,0 km/h (0 Bft) - - 0,00 h 8,5 C 26,8 C 0,0 km/h (0 Bft)
04.09.2023 03:00 10,2 C 17,2 C 9,8 C 26,8 C 26,8 C 16,6 C 87 % 90 % 1026,2 hPa 0,0 l/m 0,0 km/h (0 Bft) - - 0,00 h 8,1 C 26,8 C 0,0 km/h (0 Bft)
04.09.2023 04:00 9,7 C 17,0 C 9,4 C 26,8 C 26,8 C 17,1 C 87 % 90 % 1026,4 hPa 0,0 l/m 0,0 km/h (0 Bft) - - 0,00 h 7,6 C 26,8 C 0,0 km/h (0 Bft)
04.09.2023 05:00 9,2 C 16,9 C 9,0 C 26,8 C 26,8 C 17,6 C 87 % 89 % 1026,5 hPa 0,0 l/m 0,0 km/h (0 Bft) - - 0,00 h 7,2 C 26,8 C 0,0 km/h (0 Bft)
04.09.2023 06:00 8,9 C 16,8 C 8,7 C 26,8 C 26,8 C 17,9 C 87 % 89 % 1026,5 hPa 0,0 l/m 0,0 km/h (0 Bft) - - 0,47 h 6,9 C 26,8 C 0,0 km/h (0 Bft)
04.09.2023 07:00 9,3 C 16,7 C 10,1 C 26,8 C 26,8 C 17,5 C 88 % 90 % 1027,0 hPa 0,0 l/m 0,0 km/h (0 Bft) - - 1,00 h 7,4 C 26,8 C 0,0 km/h (0 Bft)
04.09.2023 08:00 11,1 C 16,5 C 11,2 C 26,8 C 26,8 C 15,7 C 88 % 90 % 1027,4 hPa 0,0 l/m 0,0 km/h (0 Bft) - - 1,00 h 9,2 C 26,8 C 0,0 km/h (0 Bft)
04.09.2023 09:00 15,3 C 16,3 C 13,1 C 26,8 C 26,8 C 11,5 C 86 % 90 % 1027,7 hPa 0,0 l/m 0,0 km/h (0 Bft) - - 1,00 h 13,0 C 26,8 C 0,0 km/h (0 Bft)
04.09.2023 10:00 17,5 C 16,1 C 15,8 C 26,8 C 26,8 C 9,3 C 77 % 80 % 1027,2 hPa 0,0 l/m 0,0 km/h (0 Bft) - - 1,00 h 13,4 C 26,8 C 0,0 km/h (0 Bft)
04.09.2023 11:00 19,0 C 16,1 C 19,5 C 26,8 C 26,8 C 7,8 C 69 % 64 % 1026,8 hPa 0,0 l/m 0,0 km/h (0 Bft) - - 1,00 h 13,1 C 26,8 C 0,0 km/h (0 Bft)
04.09.2023 12:00 20,6 C 16,2 C 20,9 C 26,8 C 26,8 C 6,2 C 62 % 55 % 1026,6 hPa 0,0 l/m 0,0 km/h (0 Bft) - - 1,00 h 13,1 C 26,8 C 0,0 km/h (0 Bft)
04.09.2023 13:00 22,7 C 16,3 C 21,4 C 26,8 C 26,8 C 4,1 C 57 % 53 % 1025,9 hPa 0,0 l/m 0,0 km/h (0 Bft) - - 1,00 h 13,6 C 26,8 C 0,0 km/h (0 Bft)
04.09.2023 14:00 23,6 C 16,6 C 23,0 C 26,8 C 26,8 C 3,2 C 52 % 48 % 1025,7 hPa 0,0 l/m 0,0 km/h (0 Bft) - - 0,65 h 13,1 C 26,8 C 0,0 km/h (0 Bft)
04.09.2023 15:00 24,0 C 16,7 C 23,5 C 26,8 C 26,8 C 2,8 C 53 % 48 % 1025,5 hPa 0,0 l/m 0,0 km/h (0 Bft) - - 0,00 h 13,8 C 26,8 C 0,0 km/h (0 Bft)
04.09.2023 16:00 24,1 C 16,9 C 23,7 C 26,8 C 26,8 C 2,7 C 52 % 48 % 1025,1 hPa 0,0 l/m 0,0 km/h (0 Bft) - - 0,00 h 13,7 C 26,8 C 0,0 km/h (0 Bft)
04.09.2023 17:00 24,0 C 17,1 C 23,6 C 26,8 C 26,8 C 2,8 C 52 % 47 % 1024,7 hPa 0,0 l/m 0,0 km/h (0 Bft) - - 0,08 h 13,5 C 26,8 C 0,0 km/h (0 Bft)
04.09.2023 18:00 23,5 C 17,3 C 23,0 C 26,8 C 26,8 C 3,2 C 52 % 47 % 1024,4 hPa 0,0 l/m 0,0 km/h (0 Bft) - - 1,00 h 13,2 C 26,8 C 0,0 km/h (0 Bft)
04.09.2023 19:00 22,0 C 17,5 C 20,9 C 26,8 C 26,8 C 4,8 C 58 % 54 % 1024,3 hPa 0,0 l/m 0,0 km/h (0 Bft) - - 0,67 h 13,3 C 26,8 C 0,0 km/h (0 Bft)
04.09.2023 20:00 19,7 C 17,6 C 18,0 C 26,8 C 26,8 C 7,1 C 65 % 64 % 1024,2 hPa 0,0 l/m 0,0 km/h (0 Bft) - - 0,00 h 13,0 C 26,8 C 0,0 km/h (0 Bft)
04.09.2023 21:00 17,4 C 17,8 C 16,1 C 26,8 C 26,8 C 9,4 C 73 % 71 % 1024,4 hPa 0,0 l/m 0,0 km/h (0 Bft) - - 0,00 h 12,5 C 26,8 C 0,0 km/h (0 Bft)
04.09.2023 22:00 16,1 C 17,8 C 15,2 C 26,8 C 26,8 C 10,7 C 78 % 75 % 1024,3 hPa 0,0 l/m 0,0 km/h (0 Bft) - - 0,00 h 12,1 C 26,8 C 0,0 km/h (0 Bft)
04.09.2023 23:00 15,3 C 17,9 C 14,6 C 26,8 C 26,8 C 11,5 C 81 % 78 % 1023,9 hPa 0,0 l/m 0,0 km/h (0 Bft) - - 0,00 h 12,1 C 26,8 C 0,0 km/h (0 Bft)
05.09.2023 00:00 14,7 C 17,9 C 14,0 C 26,8 C 26,8 C 12,1 C 83 % 80 % 1023,5 hPa 0,0 l/m 0,0 km/h (0 Bft) - - 0,00 h 11,8 C 26,8 C 0,0 km/h (0 Bft)
05.09.2023 01:00 14,1 C 17,8 C 13,6 C 26,8 C 26,8 C 12,7 C 85 % 81 % 1023,1 hPa 0,0 l/m 0,0 km/h (0 Bft) - - 0,00 h 11,6 C 26,8 C 0,0 km/h (0 Bft)
05.09.2023 02:00 13,5 C 17,8 C 13,0 C 26,8 C 26,8 C 13,3 C 85 % 82 % 1022,9 hPa 0,0 l/m 0,0 km/h (0 Bft) - - 0,00 h 11,1 C 26,8 C 0,0 km/h (0 Bft)
05.09.2023 03:00 13,0 C 17,7 C 12,6 C 26,8 C 26,8 C 13,8 C 86 % 83 % 1022,8 hPa 0,0 l/m 0,0 km/h (0 Bft) - - 0,00 h 10,6 C 26,8 C 0,0 km/h (0 Bft)
05.09.2023 04:00 12,6 C 17,6 C 12,1 C 26,8 C 26,8 C 14,2 C 87 % 86 % 1022,5 hPa 0,0 l/m 0,0 km/h (0 Bft) - - 0,00 h 10,4 C 26,8 C 0,0 km/h (0 Bft)
05.09.2023 05:00 11,9 C 17,6 C 11,5 C 26,8 C 26,8 C 14,9 C 87 % 88 % 1022,6 hPa 0,0 l/m 0,0 km/h (0 Bft) - - 0,00 h 9,8 C 26,8 C 0,0 km/h (0 Bft)
05.09.2023 06:00 11,4 C 17,4 C 11,2 C 26,8 C 26,8 C 15,4 C 87 % 90 % 1022,2 hPa 0,0 l/m 0,0 km/h (0 Bft) - - 0,47 h 9,3 C 26,8 C 0,0 km/h (0 Bft)
05.09.2023 07:00 12,0 C 17,3 C 12,7 C 26,8 C 26,8 C 14,8 C 87 % 88 % 1022,2 hPa 0,0 l/m 0,0 km/h (0 Bft) - - 1,00 h 10,0 C 26,8 C 0,0 km/h (0 Bft)
05.09.2023 08:00 15,0 C 17,1 C 14,0 C 26,8 C 26,8 C 11,9 C 87 % 81 % 1022,2 hPa 0,0 l/m 0,0 km/h (0 Bft) - - 1,00 h 12,8 C 26,8 C 0,0 km/h (0 Bft)
05.09.2023 09:00 20,3 C 16,8 C 16,7 C 26,8 C 26,8 C 6,5 C 74 % 77 % 1022,3 hPa 0,0 l/m 0,0 km/h (0 Bft) - - 1,00 h 15,5 C 26,8 C 0,0 km/h (0 Bft)
05.09.2023 10:00 21,5 C 16,8 C 19,3 C 26,8 C 26,8 C 5,3 C 64 % 66 % 1022,0 hPa 0,0 l/m 0,0 km/h (0 Bft) - - 1,00 h 14,3 C 26,8 C 0,0 km/h (0 Bft)
05.09.2023 11:00 22,7 C 16,8 C 22,5 C 26,8 C 26,8 C 4,1 C 59 % 57 % 1022,1 hPa 0,0 l/m 0,0 km/h (0 Bft) - - 1,00 h 14,4 C 26,8 C 0,0 km/h (0 Bft)
05.09.2023 12:00 24,1 C 17,0 C 23,7 C 26,8 C 26,8 C 2,7 C 56 % 53 % 1021,8 hPa 0,0 l/m 0,0 km/h (0 Bft) - - 0,17 h 14,7 C 26,8 C 0,0 km/h (0 Bft)
05.09.2023 13:00 26,5 C 17,2 C 24,2 C 27,0 C 26,8 C 0,5 C 51 % 52 % 1021,3 hPa 0,0 l/m 0,0 km/h (0 Bft) - - 0,00 h 15,4 C 26,8 C 0,0 km/h (0 Bft)
05.09.2023 14:00 26,7 C 17,3 C 25,3 C 26,8 C 26,8 C 0,1 C 48 % 49 % 1020,7 hPa 0,0 l/m 0,0 km/h (0 Bft) - - 0,00 h 14,6 C 26,8 C 0,0 km/h (0 Bft)
05.09.2023 15:00 26,7 C 17,6 C 25,8 C 26,8 C 26,8 C 0,1 C 48 % 48 % 1020,4 hPa 0,0 l/m 0,0 km/h (0 Bft) - - 0,00 h 14,7 C 26,8 C 0,0 km/h (0 Bft)
05.09.2023 16:00 26,7 C 17,8 C 26,0 C 26,8 C 26,8 C 0,1 C 48 % 47 % 1020,3 hPa 0,0 l/m 0,0 km/h (0 Bft) - - 0,00 h 14,7 C 26,8 C 0,0 km/h (0 Bft)
05.09.2023 17:00 26,4 C 18,0 C 25,3 C 26,8 C 26,8 C 0,4 C 48 % 48 % 1019,5 hPa 0,0 l/m 0,0 km/h (0 Bft) - - 0,00 h 14,5 C 26,8 C 0,0 km/h (0 Bft)
05.09.2023 18:00 25,8 C 18,2 C 24,3 C 26,8 C 26,8 C 1,0 C 49 % 49 % 1019,6 hPa 0,0 l/m 0,0 km/h (0 Bft) - - 0,08 h 14,3 C 26,8 C 0,0 km/h (0 Bft)
05.09.2023 19:00 24,2 C 18,3 C 22,4 C 26,8 C 26,8 C 2,6 C 54 % 54 % 1019,7 hPa 0,0 l/m 0,0 km/h (0 Bft) - - 0,67 h 14,3 C 26,8 C 0,0 km/h (0 Bft)
05.09.2023 20:00 20,8 C 18,5 C 18,7 C 26,8 C 26,8 C 6,0 C 63 % 63 % 1019,8 hPa 0,0 l/m 0,0 km/h (0 Bft) - - 0,00 h 13,5 C 26,8 C 0,0 km/h (0 Bft)
05.09.2023 21:00 18,1 C 18,5 C 16,7 C 26,8 C 26,8 C 8,7 C 71 % 70 % 1020,1 hPa 0,0 l/m 0,0 km/h (0 Bft) - - 0,00 h 12,8 C 26,8 C 0,0 km/h (0 Bft)
05.09.2023 22:00 16,0 C 18,5 C 15,1 C 26,8 C 26,8 C 10,8 C 76 % 73 % 1020,1 hPa 0,0 l/m 0,0 km/h (0 Bft) - - 0,00 h 11,7 C 26,8 C 0,0 km/h (0 Bft)
05.09.2023 23:00 14,7 C 18,5 C 14,0 C 26,8 C 26,8 C 12,1 C 79 % 76 % 1020,2 hPa 0,0 l/m 0,0 km/h (0 Bft) - - 0,00 h 11,1 C 26,8 C 0,0 km/h (0 Bft)
06.09.2023 00:00 13,5 C 18,5 C 13,0 C 26,8 C 26,8 C 13,3 C 82 % 78 % 1019,9 hPa 0,0 l/m 0,0 km/h (0 Bft) - - 0,00 h 10,5 C 26,8 C 0,0 km/h (0 Bft)
06.09.2023 01:00 12,9 C 18,4 C 12,3 C 26,8 C 26,8 C 13,9 C 83 % 79 % 1019,8 hPa 0,0 l/m 0,0 km/h (0 Bft) - - 0,00 h 10,1 C 26,8 C 0,0 km/h (0 Bft)
06.09.2023 02:00 12,0 C 18,2 C 11,6 C 26,8 C 26,8 C 14,8 C 84 % 80 % 1019,8 hPa 0,0 l/m 0,0 km/h (0 Bft) - - 0,00 h 9,4 C 26,8 C 0,0 km/h (0 Bft)
06.09.2023 03:00 11,3 C 18,1 C 11,0 C 26,8 C 26,8 C 15,5 C 85 % 80 % 1019,7 hPa 0,0 l/m 0,0 km/h (0 Bft) - - 0,00 h 8,9 C 26,8 C 0,0 km/h (0 Bft)
06.09.2023 04:00 10,9 C 17,9 C 10,6 C 26,8 C 26,8 C 15,9 C 86 % 81 % 1019,8 hPa 0,0 l/m 0,0 km/h (0 Bft) - - 0,00 h 8,6 C 26,8 C 0,0 km/h (0 Bft)
06.09.2023 05:00 10,4 C 17,8 C 10,1 C 26,8 C 26,8 C 16,4 C 86 % 81 % 1020,2 hPa 0,0 l/m 0,0 km/h (0 Bft) - - 0,00 h 8,2 C 26,8 C 0,0 km/h (0 Bft)
06.09.2023 06:00 9,9 C 17,6 C 9,7 C 26,8 C 26,8 C 16,9 C 87 % 81 % 1020,4 hPa 0,0 l/m 0,0 km/h (0 Bft) - - 0,47 h 7,9 C 26,8 C 0,0 km/h (0 Bft)
06.09.2023 07:00 10,4 C 17,4 C 11,2 C 26,8 C 26,8 C 16,4 C 88 % 81 % 1021,0 hPa 0,0 l/m 0,0 km/h (0 Bft) - - 1,00 h 8,4 C 26,8 C 0,0 km/h (0 Bft)
06.09.2023 08:00 13,6 C 17,2 C 12,4 C 26,8 C 26,8 C 13,2 C 87 % 79 % 1021,2 hPa 0,0 l/m 0,0 km/h (0 Bft) - - 1,00 h 11,5 C 26,8 C 0,0 km/h (0 Bft)
06.09.2023 09:00 18,0 C 16,9 C 14,2 C 26,8 C 26,8 C 8,8 C 80 % 81 % 1021,1 hPa 0,0 l/m 0,0 km/h (0 Bft) - - 1,00 h 14,5 C 26,8 C 0,0 km/h (0 Bft)
06.09.2023 10:00 20,2 C 16,8 C 17,8 C 26,8 C 26,8 C 6,6 C 72 % 77 % 1021,2 hPa 0,0 l/m 0,0 km/h (0 Bft) - - 1,00 h 15,0 C 26,8 C 0,0 km/h (0 Bft)
06.09.2023 11:00 23,2 C 16,9 C 22,8 C 26,8 C 26,8 C 3,6 C 57 % 55 % 1021,1 hPa 0,0 l/m 0,0 km/h (0 Bft) - - 0,52 h 14,2 C 26,8 C 0,0 km/h (0 Bft)
06.09.2023 12:00 25,8 C 17,0 C 25,5 C 26,8 C 26,8 C 1,0 C 44 % 43 % 1021,1 hPa 0,0 l/m 0,0 km/h (0 Bft) - - 0,00 h 12,6 C 26,8 C 0,0 km/h (0 Bft)
06.09.2023 13:00 28,4 C 17,4 C 26,9 C 21,0 C 6,2 C 0,0 C 39 % 40 % 1020,9 hPa 0,0 l/m 0,0 km/h (0 Bft) - - 0,00 h 13,1 C 6,2 C 0,0 km/h (0 Bft)
06.09.2023 14:00 28,8 C 17,7 C 27,6 C 19,2 C 0,0 C 0,0 C 37 % 38 % 1020,4 hPa 0,0 l/m 0,0 km/h (0 Bft) - - 0,00 h 12,8 C 0,0 C 0,0 km/h (0 Bft)
06.09.2023 15:00 28,6 C 17,9 C 27,7 C 19,0 C 0,0 C 0,0 C 37 % 37 % 1020,0 hPa 0,0 l/m 0,0 km/h (0 Bft) - - 0,00 h 12,5 C 0,0 C 0,0 km/h (0 Bft)
06.09.2023 16:00 28,3 C 18,2 C 27,5 C 18,9 C 0,0 C 0,0 C 41 % 40 % 1019,9 hPa 0,0 l/m 0,0 km/h (0 Bft) - - 0,00 h 13,9 C 0,0 C 0,0 km/h (0 Bft)
06.09.2023 17:00 27,2 C 18,3 C 26,4 C 18,1 C 0,0 C 0,0 C 43 % 39 % 1020,2 hPa 0,0 l/m 0,0 km/h (0 Bft) - - 0,00 h 13,4 C 0,0 C 0,0 km/h (0 Bft)
06.09.2023 18:00 25,2 C 18,6 C 23,7 C 16,8 C 0,0 C 0,0 C 46 % 42 % 1020,2 hPa 0,0 l/m 0,0 km/h (0 Bft) - - 0,00 h 12,8 C 0,0 C 0,0 km/h (0 Bft)
06.09.2023 19:00 22,6 C 18,6 C 20,8 C 15,1 C 0,0 C 0,0 C 54 % 51 % 1020,5 hPa 0,0 l/m 0,0 km/h (0 Bft) - - 0,00 h 12,8 C 0,0 C 0,0 km/h (0 Bft)
06.09.2023 20:00 19,6 C 18,7 C 17,7 C 13,0 C 0,0 C 0,0 C 63 % 61 % 1020,8 hPa 0,0 l/m 0,0 km/h (0 Bft) - - 0,00 h 12,2 C 0,0 C 0,0 km/h (0 Bft)
06.09.2023 21:00 17,0 C 18,7 C 15,8 C 11,3 C 0,0 C 0,0 C 70 % 66 % 1020,9 hPa 0,0 l/m 0,0 km/h (0 Bft) - - 0,00 h 11,4 C 0,0 C 0,0 km/h (0 Bft)
06.09.2023 22:00 15,3 C 18,7 C 14,5 C 10,2 C 0,0 C 0,0 C 74 % 70 % 1021,0 hPa 0,0 l/m 0,0 km/h (0 Bft) - - 0,00 h 10,7 C 0,0 C 0,0 km/h (0 Bft)
06.09.2023 23:00 14,1 C 18,6 C 13,5 C 9,4 C 0,0 C 0,0 C 78 % 73 % 1020,9 hPa 0,0 l/m 0,0 km/h (0 Bft) - - 0,00 h 10,4 C 0,0 C 0,0 km/h (0 Bft)
07.09.2023 00:00 13,1 C 18,6 C 12,6 C 8,7 C 0,0 C 0,0 C 81 % 76 % 1021,2 hPa 0,0 l/m 0,0 km/h (0 Bft) - - 0,00 h 9,9 C 0,0 C 0,0 km/h (0 Bft)
07.09.2023 01:00 12,3 C 18,4 C 11,9 C 8,2 C 0,0 C 0,0 C 83 % 76 % 1021,2 hPa 0,0 l/m 0,0 km/h (0 Bft) - - 0,00 h 9,5 C 0,0 C 0,0 km/h (0 Bft)
07.09.2023 02:00 11,7 C 18,2 C 11,4 C 7,8 C 0,0 C 0,0 C 84 % 77 % 1021,0 hPa 0,0 l/m 0,0 km/h (0 Bft) - - 0,00 h 9,1 C 0,0 C 0,0 km/h (0 Bft)
07.09.2023 03:00 11,2 C 18,1 C 11,0 C 7,5 C 0,0 C 0,0 C 85 % 78 % 1021,1 hPa 0,0 l/m 0,0 km/h (0 Bft) - - 0,00 h 8,8 C 0,0 C 0,0 km/h (0 Bft)
07.09.2023 04:00 11,1 C 17,9 C 10,8 C 7,4 C 0,0 C 0,0 C 86 % 78 % 1021,2 hPa 0,0 l/m 0,0 km/h (0 Bft) - - 0,00 h 8,8 C 0,0 C 0,0 km/h (0 Bft)
07.09.2023 05:00 10,7 C 17,8 C 10,5 C 7,1 C 0,0 C 0,0 C 86 % 78 % 1021,4 hPa 0,0 l/m 0,0 km/h (0 Bft) - - 0,00 h 8,5 C 0,0 C 0,0 km/h (0 Bft)
07.09.2023 06:00 11,6 C 17,6 C 12,3 C 7,8 C 0,0 C 0,0 C 88 % 79 % 1021,6 hPa 0,0 l/m 0,0 km/h (0 Bft) - - 0,00 h 9,6 C 0,0 C 0,0 km/h (0 Bft)
07.09.2023 07:00 14,8 C 17,4 C 13,7 C 9,9 C 0,0 C 0,0 C 87 % 76 % 1022,3 hPa 0,0 l/m 0,0 km/h (0 Bft) - - 0,00 h 12,7 C 0,0 C 0,0 km/h (0 Bft)
07.09.2023 08:00 18,6 C 17,1 C 16,0 C 12,4 C 0,0 C 0,0 C 79 % 77 % 1021,7 hPa 0,0 l/m 0,0 km/h (0 Bft) - - 0,00 h 14,9 C 0,0 C 0,0 km/h (0 Bft)
07.09.2023 09:00 22,4 C 17,1 C 20,9 C 15,0 C 0,0 C 0,0 C 65 % 66 % 1021,2 hPa 0,0 l/m 0,0 km/h (0 Bft) - - 0,00 h 15,4 C 0,0 C 0,0 km/h (0 Bft)
07.09.2023 10:00 25,0 C 17,3 C 24,7 C 16,7 C 0,0 C 0,0 C 55 % 53 % 1021,3 hPa 0,0 l/m 0,0 km/h (0 Bft) - - 0,00 h 15,3 C 0,0 C 0,0 km/h (0 Bft)
07.09.2023 11:00 26,8 C 17,4 C 26,4 C 17,9 C 0,0 C 0,0 C 48 % 45 % 1020,8 hPa 0,0 l/m 0,0 km/h (0 Bft) - - 0,00 h 14,8 C 0,0 C 0,0 km/h (0 Bft)
07.09.2023 12:00 28,4 C 17,6 C 26,9 C 18,9 C 0,0 C 0,0 C 43 % 44 % 1020,5 hPa 0,0 l/m 0,0 km/h (0 Bft) - - 0,00 h 14,6 C 0,0 C 0,0 km/h (0 Bft)
07.09.2023 13:00 29,3 C 17,9 C 28,2 C 19,5 C 0,0 C 0,0 C 39 % 40 % 1020,2 hPa 0,0 l/m 0,0 km/h (0 Bft) - - 0,00 h 13,7 C 0,0 C 0,0 km/h (0 Bft)
07.09.2023 14:00 29,5 C 18,1 C 28,6 C 19,7 C 0,0 C 0,0 C 35 % 37 % 1019,9 hPa 0,0 l/m 0,0 km/h (0 Bft) - - 0,00 h 12,6 C 0,0 C 0,0 km/h (0 Bft)
07.09.2023 15:00 29,4 C 18,3 C 28,3 C 19,6 C 0,0 C 0,0 C 34 % 35 % 1019,5 hPa 0,0 l/m 0,0 km/h (0 Bft) - - 0,00 h 11,7 C 0,0 C 0,0 km/h (0 Bft)
07.09.2023 16:00 28,9 C 18,5 C 27,5 C 19,3 C 0,0 C 0,0 C 35 % 36 % 1019,2 hPa 0,0 l/m 0,0 km/h (0 Bft) - - 0,00 h 11,7 C 0,0 C 0,0 km/h (0 Bft)
07.09.2023 17:00 27,9 C 18,7 C 25,9 C 18,6 C 0,0 C 0,0 C 36 % 37 % 1019,1 hPa 0,0 l/m 0,0 km/h (0 Bft) - - 0,00 h 11,5 C 0,0 C 0,0 km/h (0 Bft)
07.09.2023 18:00 25,7 C 18,9 C 23,6 C 17,1 C 0,0 C 0,0 C 43 % 42 % 1019,3 hPa 0,0 l/m 0,0 km/h (0 Bft) - - 0,00 h 12,3 C 0,0 C 0,0 km/h (0 Bft)
07.09.2023 19:00 22,0 C 18,9 C 19,7 C 14,7 C 0,0 C 0,0 C 53 % 51 % 1019,7 hPa 0,0 l/m 0,0 km/h (0 Bft) - - 0,00 h 11,9 C 0,0 C 0,0 km/h (0 Bft)
07.09.2023 20:00 18,4 C 18,9 C 16,8 C 12,3 C 0,0 C 0,0 C 64 % 60 % 1020,0 hPa 0,0 l/m 0,0 km/h (0 Bft) - - 0,00 h 11,5 C 0,0 C 0,0 km/h (0 Bft)
07.09.2023 21:00 16,2 C 18,9 C 15,2 C 10,8 C 0,0 C 0,0 C 71 % 65 % 1020,0 hPa 0,0 l/m 0,0 km/h (0 Bft) - - 0,00 h 11,0 C 0,0 C 0,0 km/h (0 Bft)
07.09.2023 22:00 14,8 C 18,8 C 14,1 C 9,9 C 0,0 C 0,0 C 76 % 69 % 1019,9 hPa 0,0 l/m 0,0 km/h (0 Bft) - - 0,00 h 10,6 C 0,0 C 0,0 km/h (0 Bft)
07.09.2023 23:00 13,6 C 18,7 C 13,2 C 9,1 C 0,0 C 0,0 C 79 % 72 % 1019,7 hPa 0,0 l/m 0,0 km/h (0 Bft) - - 0,00 h 10,0 C 0,0 C 0,0 km/h (0 Bft)
08.09.2023 00:00 12,7 C 18,6 C 12,3 C 8,5 C 0,0 C 0,0 C 81 % 74 % 1019,5 hPa 0,0 l/m 0,0 km/h (0 Bft) - - 0,00 h 9,6 C 0,0 C 0,0 km/h (0 Bft)
08.09.2023 01:00 12,0 C 18,4 C 11,8 C 8,0 C 0,0 C 0,0 C 83 % 76 % 1019,3 hPa 0,0 l/m 0,0 km/h (0 Bft) - - 0,00 h 9,3 C 0,0 C 0,0 km/h (0 Bft)
08.09.2023 02:00 11,5 C 18,4 C 11,3 C 7,7 C 0,0 C 0,0 C 85 % 77 % 1019,5 hPa 0,0 l/m 0,0 km/h (0 Bft) - - 0,00 h 9,0 C 0,0 C 0,0 km/h (0 Bft)
08.09.2023 03:00 11,1 C 18,2 C 10,9 C 7,4 C 0,0 C 0,0 C 85 % 77 % 1019,5 hPa 0,0 l/m 0,0 km/h (0 Bft) - - 0,00 h 8,8 C 0,0 C 0,0 km/h (0 Bft)
08.09.2023 04:00 10,8 C 18,0 C 10,6 C 7,2 C 0,0 C 0,0 C 86 % 77 % 1019,3 hPa 0,0 l/m 0,0 km/h (0 Bft) - - 0,00 h 8,5 C 0,0 C 0,0 km/h (0 Bft)
08.09.2023 05:00 10,6 C 17,8 C 10,5 C 7,1 C 0,0 C 0,0 C 87 % 77 % 1019,5 hPa 0,0 l/m 0,0 km/h (0 Bft) - - 0,00 h 8,5 C 0,0 C 0,0 km/h (0 Bft)
08.09.2023 06:00 11,6 C 17,6 C 12,2 C 7,7 C 0,0 C 0,0 C 88 % 77 % 1019,6 hPa 0,0 l/m 0,0 km/h (0 Bft) - - 0,00 h 9,6 C 0,0 C 0,0 km/h (0 Bft)
08.09.2023 07:00 16,4 C 17,5 C 13,3 C 11,0 C 0,0 C 0,0 C 85 % 76 % 1019,5 hPa 0,0 l/m 0,0 km/h (0 Bft) - - 0,00 h 14,0 C 0,0 C 0,0 km/h (0 Bft)
08.09.2023 08:00 20,5 C 17,2 C 16,9 C 13,6 C 0,0 C 0,0 C 72 % 76 % 1019,6 hPa 0,0 l/m 0,0 km/h (0 Bft) - - 0,00 h 15,3 C 0,0 C 0,0 km/h (0 Bft)
08.09.2023 09:00 23,1 C 17,2 C 21,5 C 15,4 C 0,0 C 0,0 C 60 % 60 % 1019,4 hPa 0,0 l/m 0,0 km/h (0 Bft) - - 0,00 h 15,0 C 0,0 C 0,0 km/h (0 Bft)
08.09.2023 10:00 24,5 C 17,3 C 24,1 C 16,3 C 0,0 C 0,0 C 56 % 53 % 1019,1 hPa 0,0 l/m 0,0 km/h (0 Bft) - - 0,00 h 15,2 C 0,0 C 0,0 km/h (0 Bft)
08.09.2023 11:00 26,8 C 17,5 C 26,6 C 17,9 C 0,0 C 0,0 C 48 % 45 % 1018,7 hPa 0,0 l/m 0,0 km/h (0 Bft) - - 0,00 h 14,8 C 0,0 C 0,0 km/h (0 Bft)
08.09.2023 12:00 30,3 C 17,7 C 27,1 C 20,2 C 0,0 C 0,0 C 37 % 40 % 1018,3 hPa 0,0 l/m 0,0 km/h (0 Bft) - - 0,00 h 13,7 C 0,0 C 0,0 km/h (0 Bft)
08.09.2023 13:00 30,5 C 17,9 C 28,3 C 20,4 C 0,0 C 0,0 C 33 % 37 % 1017,8 hPa 0,0 l/m 0,0 km/h (0 Bft) - - 0,00 h 12,6 C 0,0 C 0,0 km/h (0 Bft)
08.09.2023 14:00 30,1 C 18,1 C 28,5 C 20,1 C 0,0 C 0,0 C 33 % 36 % 1017,3 hPa 0,0 l/m 0,0 km/h (0 Bft) - - 0,00 h 12,1 C 0,0 C 0,0 km/h (0 Bft)
08.09.2023 15:00 29,7 C 18,4 C 28,5 C 19,8 C 0,0 C 0,0 C 35 % 36 % 1017,3 hPa 0,0 l/m 0,0 km/h (0 Bft) - - 0,00 h 12,5 C 0,0 C 0,0 km/h (0 Bft)
08.09.2023 16:00 29,0 C 18,7 C 27,7 C 19,3 C 0,0 C 0,0 C 38 % 38 % 1017,3 hPa 0,0 l/m 0,0 km/h (0 Bft) - - 0,00 h 13,1 C 0,0 C 0,0 km/h (0 Bft)
08.09.2023 17:00 27,9 C 18,9 C 26,0 C 18,6 C 0,0 C 0,0 C 43 % 42 % 1017,2 hPa 0,0 l/m 0,0 km/h (0 Bft) - - 0,00 h 13,9 C 0,0 C 0,0 km/h (0 Bft)
08.09.2023 18:00 25,7 C 19,1 C 23,7 C 17,1 C 0,0 C 0,0 C 47 % 46 % 1017,4 hPa 0,0 l/m 0,0 km/h (0 Bft) - - 0,00 h 13,5 C 0,0 C 0,0 km/h (0 Bft)
08.09.2023 19:00 22,1 C 19,1 C 20,2 C 14,7 C 0,0 C 0,0 C 55 % 52 % 1017,6 hPa 0,0 l/m 0,0 km/h (0 Bft) - - 0,00 h 12,6 C 0,0 C 0,0 km/h (0 Bft)
08.09.2023 20:00 19,0 C 19,2 C 17,5 C 12,7 C 0,0 C 0,0 C 64 % 61 % 1017,8 hPa 0,0 l/m 0,0 km/h (0 Bft) - - 0,00 h 12,1 C 0,0 C 0,0 km/h (0 Bft)
08.09.2023 21:00 17,0 C 19,2 C 16,0 C 11,3 C 0,0 C 0,0 C 71 % 67 % 1017,6 hPa 0,0 l/m 0,0 km/h (0 Bft) - - 0,00 h 11,7 C 0,0 C 0,0 km/h (0 Bft)
08.09.2023 22:00 15,5 C 19,1 C 14,8 C 10,3 C 0,0 C 0,0 C 77 % 72 % 1017,3 hPa 0,0 l/m 0,0 km/h (0 Bft) - - 0,00 h 11,4 C 0,0 C 0,0 km/h (0 Bft)
08.09.2023 23:00 14,3 C 19,0 C 13,8 C 9,6 C 0,0 C 0,0 C 81 % 73 % 1017,4 hPa 0,0 l/m 0,0 km/h (0 Bft) - - 0,00 h 11,0 C 0,0 C 0,0 km/h (0 Bft)
09.09.2023 00:00 13,4 C 18,9 C 12,9 C 8,9 C 0,0 C 0,0 C 82 % 75 % 1017,0 hPa 0,0 l/m 0,0 km/h (0 Bft) - - 0,00 h 10,3 C 0,0 C 0,0 km/h (0 Bft)
09.09.2023 01:00 12,7 C 18,8 C 12,2 C 8,5 C 0,0 C 0,0 C 83 % 76 % 1016,6 hPa 0,0 l/m 0,0 km/h (0 Bft) - - 0,00 h 9,9 C 0,0 C 0,0 km/h (0 Bft)
09.09.2023 02:00 12,0 C 18,6 C 11,7 C 8,0 C 0,0 C 0,0 C 84 % 76 % 1016,7 hPa 0,0 l/m 0,0 km/h (0 Bft) - - 0,00 h 9,4 C 0,0 C 0,0 km/h (0 Bft)
09.09.2023 03:00 11,2 C 18,5 C 11,0 C 7,5 C 0,0 C 0,0 C 85 % 77 % 1016,7 hPa 0,0 l/m 0,0 km/h (0 Bft) - - 0,00 h 8,8 C 0,0 C 0,0 km/h (0 Bft)
09.09.2023 04:00 10,6 C 18,3 C 10,5 C 7,1 C 0,0 C 0,0 C 86 % 77 % 1016,9 hPa 0,0 l/m 0,0 km/h (0 Bft) - - 0,00 h 8,3 C 0,0 C 0,0 km/h (0 Bft)
09.09.2023 05:00 10,3 C 18,1 C 10,1 C 6,9 C 0,0 C 0,0 C 86 % 77 % 1017,0 hPa 0,0 l/m 0,0 km/h (0 Bft) - - 0,00 h 8,1 C 0,0 C 0,0 km/h (0 Bft)
09.09.2023 06:00 11,0 C 17,9 C 11,7 C 7,3 C 0,0 C 0,0 C 87 % 76 % 1017,2 hPa 0,0 l/m 0,0 km/h (0 Bft) - - 0,00 h 9,0 C 0,0 C 0,0 km/h (0 Bft)
09.09.2023 07:00 15,2 C 17,6 C 12,8 C 10,1 C 0,0 C 0,0 C 86 % 75 % 1017,6 hPa 0,0 l/m 0,0 km/h (0 Bft) - - 0,00 h 12,9 C 0,0 C 0,0 km/h (0 Bft)
09.09.2023 08:00 19,2 C 17,4 C 15,0 C 12,8 C 0,0 C 0,0 C 75 % 76 % 1017,6 hPa 0,0 l/m 0,0 km/h (0 Bft) - - 0,00 h 14,6 C 0,0 C 0,0 km/h (0 Bft)
09.09.2023 09:00 21,1 C 17,3 C 18,1 C 14,1 C 0,0 C 0,0 C 69 % 74 % 1017,4 hPa 0,0 l/m 0,0 km/h (0 Bft) - - 0,00 h 15,2 C 0,0 C 0,0 km/h (0 Bft)
09.09.2023 10:00 23,5 C 17,4 C 23,1 C 15,7 C 0,0 C 0,0 C 59 % 61 % 1017,2 hPa 0,0 l/m 0,0 km/h (0 Bft) - - 0,00 h 14,9 C 0,0 C 0,0 km/h (0 Bft)
09.09.2023 11:00 26,8 C 17,6 C 26,8 C 17,8 C 0,0 C 0,0 C 46 % 46 % 1016,9 hPa 0,0 l/m 0,0 km/h (0 Bft) - - 0,00 h 14,3 C 0,0 C 0,0 km/h (0 Bft)
09.09.2023 12:00 31,0 C 17,8 C 26,5 C 20,7 C 0,0 C 0,0 C 38 % 45 % 1016,7 hPa 0,0 l/m 0,0 km/h (0 Bft) - - 0,00 h 15,0 C 0,0 C 0,0 km/h (0 Bft)
09.09.2023 13:00 31,7 C 18,0 C 28,3 C 21,1 C 0,0 C 0,0 C 36 % 43 % 1016,7 hPa 0,0 l/m 0,0 km/h (0 Bft) - - 0,00 h 14,7 C 0,0 C 0,0 km/h (0 Bft)
09.09.2023 14:00 31,1 C 18,3 C 28,8 C 20,7 C 0,0 C 0,0 C 37 % 42 % 1016,6 hPa 0,0 l/m 0,0 km/h (0 Bft) - - 0,00 h 14,4 C 0,0 C 0,0 km/h (0 Bft)
09.09.2023 15:00 30,7 C 18,6 C 28,9 C 20,5 C 0,0 C 0,0 C 36 % 40 % 1016,2 hPa 0,0 l/m 0,0 km/h (0 Bft) - - 0,00 h 14,0 C 0,0 C 0,0 km/h (0 Bft)
09.09.2023 16:00 30,1 C 18,8 C 28,2 C 20,0 C 0,0 C 0,0 C 38 % 41 % 1016,4 hPa 0,0 l/m 0,0 km/h (0 Bft) - - 0,00 h 14,0 C 0,0 C 0,0 km/h (0 Bft)
09.09.2023 17:00 29,5 C 19,1 C 26,5 C 19,6 C 0,0 C 0,0 C 40 % 46 % 1016,3 hPa 0,0 l/m 0,0 km/h (0 Bft) - - 0,00 h 14,5 C 0,0 C 0,0 km/h (0 Bft)
09.09.2023 18:00 26,1 C 19,3 C 23,1 C 17,4 C 0,0 C 0,0 C 51 % 55 % 1016,7 hPa 0,0 l/m 0,0 km/h (0 Bft) - - 0,00 h 15,1 C 0,0 C 0,0 km/h (0 Bft)
09.09.2023 19:00 21,9 C 19,4 C 19,9 C 14,6 C 0,0 C 0,0 C 62 % 63 % 1016,7 hPa 0,0 l/m 0,0 km/h (0 Bft) - - 0,00 h 14,3 C 0,0 C 0,0 km/h (0 Bft)
09.09.2023 20:00 19,2 C 19,5 C 18,0 C 12,8 C 0,0 C 0,0 C 70 % 69 % 1016,8 hPa 0,0 l/m 0,0 km/h (0 Bft) - - 0,00 h 13,5 C 0,0 C 0,0 km/h (0 Bft)
09.09.2023 21:00 17,3 C 19,4 C 16,5 C 11,5 C 0,0 C 0,0 C 76 % 72 % 1016,8 hPa 0,0 l/m 0,0 km/h (0 Bft) - - 0,00 h 13,0 C 0,0 C 0,0 km/h (0 Bft)
09.09.2023 22:00 16,2 C 19,5 C 15,6 C 10,8 C 0,0 C 0,0 C 80 % 77 % 1016,6 hPa 0,0 l/m 0,0 km/h (0 Bft) - - 0,00 h 12,7 C 0,0 C 0,0 km/h (0 Bft)
09.09.2023 23:00 15,3 C 19,4 C 14,8 C 10,2 C 0,0 C 0,0 C 83 % 77 % 1016,6 hPa 0,0 l/m 0,0 km/h (0 Bft) - - 0,00 h 12,3 C 0,0 C 0,0 km/h (0 Bft)
10.09.2023 00:00 14,5 C 19,3 C 14,1 C 9,7 C 0,0 C 0,0 C 84 % 78 % 1016,6 hPa 0,0 l/m 0,0 km/h (0 Bft) - - 0,00 h 11,8 C 0,0 C 0,0 km/h (0 Bft)
10.09.2023 01:00 13,8 C 19,2 C 13,5 C 9,2 C 0,0 C 0,0 C 84 % 79 % 1016,3 hPa 0,0 l/m 0,0 km/h (0 Bft) - - 0,00 h 11,2 C 0,0 C 0,0 km/h (0 Bft)
10.09.2023 02:00 13,2 C 19,1 C 12,9 C 8,8 C 0,0 C 0,0 C 85 % 79 % 1016,3 hPa 0,0 l/m 0,0 km/h (0 Bft) - - 0,00 h 10,8 C 0,0 C 0,0 km/h (0 Bft)
10.09.2023 03:00 12,8 C 18,9 C 12,6 C 8,5 C 0,0 C 0,0 C 86 % 80 % 1016,4 hPa 0,0 l/m 0,0 km/h (0 Bft) - - 0,00 h 10,5 C 0,0 C 0,0 km/h (0 Bft)
10.09.2023 04:00 12,5 C 18,7 C 12,3 C 8,4 C 0,0 C 0,0 C 86 % 80 % 1016,6 hPa 0,0 l/m 0,0 km/h (0 Bft) - - 0,00 h 10,3 C 0,0 C 0,0 km/h (0 Bft)
10.09.2023 05:00 12,1 C 18,6 C 11,8 C 8,0 C 0,0 C 0,0 C 87 % 80 % 1016,5 hPa 0,0 l/m 0,0 km/h (0 Bft) - - 0,00 h 10,0 C 0,0 C 0,0 km/h (0 Bft)
10.09.2023 06:00 12,5 C 18,5 C 13,2 C 8,3 C 0,0 C 0,0 C 88 % 80 % 1017,0 hPa 0,0 l/m 0,0 km/h (0 Bft) - - 0,00 h 10,5 C 0,0 C 0,0 km/h (0 Bft)
10.09.2023 07:00 15,0 C 18,2 C 14,3 C 10,0 C 0,0 C 0,0 C 88 % 79 % 1017,3 hPa 0,0 l/m 0,0 km/h (0 Bft) - - 0,00 h 13,0 C 0,0 C 0,0 km/h (0 Bft)
10.09.2023 08:00 18,8 C 17,9 C 16,8 C 12,5 C 0,0 C 0,0 C 82 % 79 % 1017,3 hPa 0,0 l/m 0,0 km/h (0 Bft) - - 0,00 h 15,7 C 0,0 C 0,0 km/h (0 Bft)
10.09.2023 09:00 21,8 C 17,9 C 20,2 C 14,6 C 0,0 C 0,0 C 72 % 73 % 1017,0 hPa 0,0 l/m 0,0 km/h (0 Bft) - - 0,00 h 16,6 C 0,0 C 0,0 km/h (0 Bft)
10.09.2023 10:00 24,8 C 18,0 C 23,9 C 16,6 C 0,0 C 0,0 C 61 % 63 % 1017,2 hPa 0,0 l/m 0,0 km/h (0 Bft) - - 0,00 h 16,7 C 0,0 C 0,0 km/h (0 Bft)
10.09.2023 11:00 27,8 C 18,1 C 27,4 C 18,5 C 0,0 C 0,0 C 51 % 52 % 1016,7 hPa 0,0 l/m 0,0 km/h (0 Bft) - - 0,00 h 16,6 C 0,0 C 0,0 km/h (0 Bft)
10.09.2023 12:00 31,7 C 18,3 C 26,9 C 21,1 C 0,0 C 0,0 C 41 % 49 % 1016,6 hPa 0,0 l/m 0,0 km/h (0 Bft) - - 0,00 h 16,7 C 0,0 C 0,0 km/h (0 Bft)
10.09.2023 13:00 31,9 C 18,6 C 28,2 C 21,3 C 0,0 C 0,0 C 38 % 46 % 1016,4 hPa 0,0 l/m 0,0 km/h (0 Bft) - - 0,00 h 15,8 C 0,0 C 0,0 km/h (0 Bft)
10.09.2023 14:00 30,8 C 18,8 C 28,8 C 20,5 C 0,0 C 0,0 C 40 % 45 % 1016,1 hPa 0,0 l/m 0,0 km/h (0 Bft) - - 0,00 h 15,7 C 0,0 C 0,0 km/h (0 Bft)
10.09.2023 15:00 30,4 C 19,1 C 28,7 C 20,3 C 0,0 C 0,0 C 40 % 44 % 1015,9 hPa 0,0 l/m 0,0 km/h (0 Bft) - - 0,00 h 15,2 C 0,0 C 0,0 km/h (0 Bft)
10.09.2023 16:00 29,8 C 19,4 C 28,2 C 19,9 C 0,0 C 0,0 C 39 % 42 % 1015,8 hPa 0,0 l/m 0,0 km/h (0 Bft) - - 0,00 h 14,4 C 0,0 C 0,0 km/h (0 Bft)
10.09.2023 17:00 29,1 C 19,5 C 26,7 C 19,4 C 0,0 C 0,0 C 41 % 45 % 1015,7 hPa 0,0 l/m 0,0 km/h (0 Bft) - - 0,00 h 14,6 C 0,0 C 0,0 km/h (0 Bft)
10.09.2023 18:00 25,9 C 19,7 C 22,7 C 17,3 C 0,0 C 0,0 C 50 % 54 % 1015,9 hPa 0,0 l/m 0,0 km/h (0 Bft) - - 0,00 h 14,7 C 0,0 C 0,0 km/h (0 Bft)
10.09.2023 19:00 21,6 C 19,8 C 19,6 C 14,4 C 0,0 C 0,0 C 62 % 63 % 1015,9 hPa 0,0 l/m 0,0 km/h (0 Bft) - - 0,00 h 13,9 C 0,0 C 0,0 km/h (0 Bft)
10.09.2023 20:00 18,8 C 19,8 C 17,6 C 12,5 C 0,0 C 0,0 C 70 % 69 % 1015,9 hPa 0,0 l/m 0,0 km/h (0 Bft) - - 0,00 h 13,2 C 0,0 C 0,0 km/h (0 Bft)
10.09.2023 21:00 17,1 C 19,8 C 16,3 C 11,4 C 0,0 C 0,0 C 76 % 72 % 1015,9 hPa 0,0 l/m 0,0 km/h (0 Bft) - - 0,00 h 12,8 C 0,0 C 0,0 km/h (0 Bft)
10.09.2023 22:00 15,8 C 19,8 C 15,2 C 10,5 C 0,0 C 0,0 C 79 % 75 % 1015,9 hPa 0,0 l/m 0,0 km/h (0 Bft) - - 0,00 h 12,0 C 0,0 C 0,0 km/h (0 Bft)
10.09.2023 23:00 14,8 C 19,7 C 14,3 C 9,9 C 0,0 C 0,0 C 81 % 77 % 1015,5 hPa 0,0 l/m 0,0 km/h (0 Bft) - - 0,00 h 11,5 C 0,0 C 0,0 km/h (0 Bft)
Min-Datum _ 04.09.23 04.09.23 04.09.23 09.09.23 06.09.23 05.09.23 08.09.23 07.09.23 10.09.23 - 04.09.23 - - 04.09.23 06.09.23 04.09.23
_ Min-Zeit 06:50 10:41 06:26 05:37 13:12 13:35 13:12 15:12 23:52 - 00:00 - - 06:50 13:12 00:00
Minimum _ 8,8 C 16,0 C 8,6 C 6,8 C 0,0 C 0,0 C 32 % 34 % 1015,4 hPa - 0,0 km/h (0 Bft) - - 6,8 C 0,0 C 0,0 km/h (0 Bft)
Max-Datum _ 10.09.23 10.09.23 10.09.23 05.09.23 04.09.23 04.09.23 04.09.23 04.09.23 04.09.23 04.09.23 04.09.23 - 06.09.23 10.09.23 04.09.23 04.09.23
_ Max-Zeit 13:07 18:52 11:12 13:35 00:00 06:50 07:15 00:11 09:35 00:00 00:00 - 10:32 12:07 00:00 00:00
Maximum _ 33,0 C 19,8 C 29,4 C 27,3 C 26,8 C 18,0 C 88 % 90 % 1028,1 hPa 0,0 l/m 0,0 km/h
- - (0 Bft)
- 0,35 h 17,2 C 26,8 C 0,0 km/h
- - (0 Bft)
Durchschnitt _ 19,3 C 18,1 C 18,2 C 18,5 C 9,8 C 3,5 C 67 % 65 % 1020,0 hPa #0,0 l/m 0,0 km/h (0 Bft) - - #21:14 h 12,2 C 9,8 C 0,0 km/h (0 Bft)
2023 www.wetterstation-wechselburg.de